Ashford, Connecticut
Current Conditions -  °F | °C
As of 9:52 AM on Friday 24 Oct 2014 (Local Time) from KIJD Reporting Station
Overcast Overcast  
Wind Chill: 10°   Ceiling: 1700
Heat Index: 10°   Visibility: 10mi
Dew Point:   Wind: 10mph
Humidity: 83%   Direction: 330°NNW
Pressure: 29.76"   Gusts: NA
Location:  41.87°N, 72.12°W
Report Text: KIJD 241352Z AUTO 33009KT 10SM OVC017 10/07 A2976 RMK AO2 RAE1254B20E35 SLP076 P0000 T01000072
Loading
Personal Weather Stations






























Interactive Weather Map
Tropical Storm Tracking
New forecast layout! Learn more

10-Day Weather Forecast

Advertisements
Track Severe Weather on mobile